Time;durP1;ratioP1;P1;durP2;ratioP2;P2;SDS_P1;SDS_P2;PMS_P1;PMS_P2;Temp;Humidity;BMP_temperature;BMP_pressure;BME280_temperature;BME280_humidity;BME280_pressure;Samples;Min_cycle;Max_cycle;Signal;HPM_P1;HPM_P2
2022/12/08 00:03:20;;;;;;;94.47;37.10;;;1.40;99.90;;;;;;10320133;28;20038;-80
2022/12/08 00:13:40;;;;;;;82.93;36.10;;;1.40;99.90;;;;;;10324931;28;20045;-81
2022/12/08 00:18:41;;;;;;;79.47;31.83;;;1.50;99.90;;;;;;10319272;28;20478;-81
2022/12/08 00:23:41;;;;;;;74.20;33.13;;;1.50;99.90;;;;;;10318289;28;20034;-81
2022/12/08 00:28:42;;;;;;;82.97;35.43;;;1.60;99.90;;;;;;10317985;28;20029;-81
2022/12/08 00:33:42;;;;;;;78.80;35.33;;;1.60;99.90;;;;;;10322003;28;20879;-81
2022/12/08 00:38:43;;;;;;;84.53;34.60;;;1.70;99.90;;;;;;10319751;28;20111;-81
2022/12/08 00:43:44;;;;;;;85.53;37.30;;;1.70;99.90;;;;;;10320254;28;20038;-82
2022/12/08 00:48:44;;;;;;;86.03;37.90;;;1.80;99.90;;;;;;10320682;28;20022;-81
2022/12/08 00:53:45;;;;;;;90.10;36.83;;;1.80;99.90;;;;;;10317688;28;20627;-80
2022/12/08 00:58:45;;;;;;;88.83;38.87;;;1.80;99.90;;;;;;10322918;28;20030;-81
2022/12/08 01:03:46;;;;;;;85.60;37.67;;;1.90;99.90;;;;;;10318017;28;20113;-81
2022/12/08 01:08:47;;;;;;;88.73;35.80;;;1.90;99.90;;;;;;10320275;28;20030;-81
2022/12/08 01:13:47;;;;;;;91.17;37.10;;;1.90;99.90;;;;;;10325071;28;20045;-81
2022/12/08 01:18:49;;;;;;;81.33;35.03;;;1.90;99.90;;;;;;10315942;28;20042;-81
2022/12/08 01:23:49;;;;;;;93.73;36.90;;;1.90;99.90;;;;;;10320791;28;20042;-82
2022/12/08 01:28:50;;;;;;;95.73;41.33;;;1.90;99.90;;;;;;10317745;28;20819;-81
2022/12/08 01:33:51;;;;;;;104.43;45.23;;;1.90;99.90;;;;;;10326884;28;20389;-81
2022/12/08 01:38:52;;;;;;;97.07;39.50;;;1.90;99.90;;;;;;10319694;28;20121;-81
2022/12/08 01:44:09;;;;;;;77.90;34.10;;;1.90;99.90;;;;;;10319538;28;20093;-81
2022/12/08 01:49:16;;;;;;;87.37;36.23;;;1.90;99.90;;;;;;10320714;28;20065;-81
2022/12/08 01:54:19;;;;;;;93.77;36.87;;;1.90;99.90;;;;;;10318362;28;20229;-80
2022/12/08 01:59:21;;;;;;;83.10;35.13;;;1.90;99.90;;;;;;10321131;28;20041;-81
2022/12/08 02:04:21;;;;;;;83.50;35.07;;;1.90;99.90;;;;;;10325105;28;20398;-81
2022/12/08 02:09:23;;;;;;;96.30;40.00;;;1.90;99.90;;;;;;10320037;28;20037;-82
2022/12/08 02:14:24;;;;;;;92.37;39.27;;;2.00;99.90;;;;;;10326562;28;20113;-83
2022/12/08 02:19:45;;;;;;;99.60;43.13;;;2.00;99.90;;;;;;10314973;28;20038;-82
2022/12/08 02:25:03;;;;;;;98.93;41.17;;;1.90;99.90;;;;;;10315385;28;20041;-81
2022/12/08 02:30:18;;;;;;;90.00;37.90;;;2.00;99.90;;;;;;10319957;28;20045;-81
2022/12/08 02:35:43;;;;;;;85.77;37.90;;;1.90;99.90;;;;;;10319132;28;20033;-81
2022/12/08 02:41:10;;;;;;;82.53;33.20;;;1.90;99.90;;;;;;10326646;28;20045;-81
2022/12/08 02:46:33;;;;;;;79.72;32.75;;;1.90;99.90;;;;;;10331911;28;20037;-81
2022/12/08 02:51:33;;;;;;;76.13;31.07;;;1.90;99.90;;;;;;10327230;28;20046;-82
2022/12/08 02:56:59;;;;;;;65.60;27.67;;;1.80;99.90;;;;;;10327825;28;20390;-82
2022/12/08 03:02:29;;;;;;;62.23;27.33;;;1.80;99.90;;;;;;10326382;28;20022;-81
2022/12/08 03:07:42;;;;;;;72.27;29.73;;;1.70;99.90;;;;;;10322430;28;20034;-81
2022/12/08 03:12:58;;;;;;;75.40;31.17;;;1.70;99.90;;;;;;10328626;28;20576;-81
2022/12/08 03:17:59;;;;;;;63.97;26.08;;;1.70;99.90;;;;;;10322984;28;20031;-81
2022/12/08 03:23:04;;;;;;;67.77;24.97;;;1.70;99.90;;;;;;10320659;28;20084;-81
2022/12/08 03:28:05;;;;;;;69.00;27.70;;;1.70;99.90;;;;;;10324608;28;20429;-82
2022/12/08 03:33:23;;;;;;;65.37;27.33;;;1.70;99.90;;;;;;10323902;28;20092;-81
2022/12/08 03:38:23;;;;;;;63.33;26.13;;;1.70;99.90;;;;;;10326173;28;20030;-81
2022/12/08 03:43:24;;;;;;;65.87;27.03;;;1.70;99.90;;;;;;10325132;28;20030;-81
2022/12/08 03:48:25;;;;;;;64.20;26.80;;;1.70;99.90;;;;;;10326198;28;20577;-81
2022/12/08 03:53:25;;;;;;;60.87;25.20;;;1.70;99.90;;;;;;10321832;28;20393;-82
2022/12/08 03:58:26;;;;;;;60.80;26.87;;;1.80;99.90;;;;;;10324071;28;20041;-80
2022/12/08 04:03:26;;;;;;;62.17;26.37;;;1.70;99.90;;;;;;10330491;28;20092;-81
2022/12/08 04:08:27;;;;;;;63.90;26.97;;;1.80;99.90;;;;;;10324970;28;20540;-81
2022/12/08 04:13:28;;;;;;;64.50;27.07;;;1.80;99.90;;;;;;10322229;28;20077;-82
2022/12/08 04:18:28;;;;;;;68.67;27.93;;;1.80;99.90;;;;;;10324911;28;20030;-81
2022/12/08 04:23:29;;;;;;;67.93;27.17;;;1.80;99.90;;;;;;10321973;28;20034;-81
2022/12/08 04:28:30;;;;;;;69.47;26.93;;;1.80;99.90;;;;;;10324603;28;20038;-81
2022/12/08 04:33:31;;;;;;;69.90;27.30;;;1.70;99.90;;;;;;10323865;28;20461;-82
2022/12/08 04:38:32;;;;;;;60.47;25.17;;;1.70;99.90;;;;;;10327167;28;20105;-82
2022/12/08 04:43:33;;;;;;;58.90;23.97;;;1.60;99.90;;;;;;10318187;28;20040;-80
2022/12/08 04:48:36;;;;;;;60.30;25.57;;;1.60;99.90;;;;;;10321784;28;20030;-83
2022/12/08 04:53:36;;;;;;;62.93;26.77;;;1.60;99.90;;;;;;10339549;28;20061;-82
2022/12/08 04:58:37;;;;;;;70.73;31.63;;;1.50;99.90;;;;;;10334681;28;20472;-82
2022/12/08 05:03:38;;;;;;;69.13;29.77;;;1.50;99.90;;;;;;10333321;28;20038;-81
2022/12/08 05:08:38;;;;;;;73.17;29.57;;;1.40;99.90;;;;;;10323139;28;20030;-83
2022/12/08 05:13:39;;;;;;;78.60;32.03;;;1.40;99.90;;;;;;10317555;28;20502;-81
2022/12/08 05:18:40;;;;;;;86.43;33.90;;;1.30;99.90;;;;;;10321048;28;20030;-81
2022/12/08 05:23:41;;;;;;;99.73;40.50;;;1.30;99.90;;;;;;10320860;28;20132;-84
2022/12/08 05:28:41;;;;;;;107.47;42.67;;;1.30;99.90;;;;;;10315687;28;20156;-83
2022/12/08 05:33:43;;;;;;;125.97;50.73;;;1.40;99.90;;;;;;10313570;28;20145;-82
2022/12/08 05:38:45;;;;;;;119.03;46.67;;;1.40;99.90;;;;;;10336253;28;20113;-83
2022/12/08 05:43:46;;;;;;;131.43;47.20;;;1.30;99.90;;;;;;10351639;28;20036;-83
2022/12/08 05:48:47;;;;;;;108.63;41.50;;;1.30;99.90;;;;;;10345149;28;20040;-83
2022/12/08 05:53:49;;;;;;;99.50;42.27;;;1.30;99.90;;;;;;10360375;28;20072;-82
2022/12/08 05:58:49;;;;;;;105.40;46.70;;;1.30;99.90;;;;;;10361089;28;20556;-81
2022/12/08 06:03:50;;;;;;;94.67;38.83;;;1.30;99.90;;;;;;10349469;28;20134;-82
2022/12/08 06:08:51;;;;;;;100.90;39.43;;;1.30;99.90;;;;;;10343453;28;20697;-82
2022/12/08 06:13:53;;;;;;;99.37;45.23;;;1.30;99.90;;;;;;10366976;28;20033;-82
2022/12/08 06:18:54;;;;;;;110.03;49.97;;;1.30;99.90;;;;;;10368004;28;20054;-82
2022/12/08 06:23:55;;;;;;;106.80;48.33;;;1.30;99.90;;;;;;10368523;28;20144;-81
2022/12/08 06:28:55;;;;;;;107.60;52.27;;;1.30;99.90;;;;;;10367425;28;20144;-82
2022/12/08 06:33:56;;;;;;;160.50;69.50;;;1.10;99.90;;;;;;10367812;28;20034;-82
2022/12/08 06:38:57;;;;;;;163.07;69.17;;;1.00;99.90;;;;;;10339753;28;20830;-82
2022/12/08 06:43:57;;;;;;;149.60;62.13;;;1.00;99.90;;;;;;10367063;28;20029;-82
2022/12/08 06:48:58;;;;;;;122.40;51.97;;;0.90;99.90;;;;;;10367481;28;20034;-84
2022/12/08 06:54:00;;;;;;;118.57;49.13;;;0.90;99.90;;;;;;10366726;28;20046;-82
2022/12/08 06:59:02;;;;;;;129.43;58.63;;;0.90;99.90;;;;;;10367037;28;20120;-82
2022/12/08 07:04:02;;;;;;;155.87;84.30;;;1.00;99.90;;;;;;10366921;28;20462;-83
2022/12/08 07:09:03;;;;;;;146.30;72.53;;;1.10;99.90;;;;;;10353679;28;20034;-82
2022/12/08 07:14:03;;;;;;;110.20;49.23;;;1.20;99.90;;;;;;10366625;28;20049;-82
2022/12/08 07:19:05;;;;;;;102.90;42.33;;;1.20;99.90;;;;;;10365598;28;20149;-82
2022/12/08 07:24:06;;;;;;;113.60;50.73;;;1.10;99.90;;;;;;10364631;28;20096;-81
2022/12/08 07:29:08;;;;;;;139.97;60.40;;;1.20;99.90;;;;;;10365793;28;20451;-82
2022/12/08 07:34:11;;;;;;;136.80;56.07;;;1.30;99.90;;;;;;10365592;28;20056;-82
2022/12/08 07:39:11;;;;;;;126.63;57.30;;;1.50;99.90;;;;;;10351140;28;20030;-83
2022/12/08 07:44:12;;;;;;;128.97;60.80;;;1.60;99.90;;;;;;10363838;28;20496;-83
2022/12/08 07:49:12;;;;;;;98.80;41.00;;;1.70;99.90;;;;;;10365039;28;20033;-80
2022/12/08 07:54:13;;;;;;;97.50;43.43;;;1.80;99.90;;;;;;10365126;28;20066;-82
2022/12/08 07:59:14;;;;;;;89.73;39.37;;;2.00;99.90;;;;;;10365199;28;20018;-82
2022/12/08 08:04:14;;;;;;;89.23;37.97;;;2.10;99.90;;;;;;10364713;28;20036;-82
2022/12/08 08:09:15;;;;;;;75.87;34.67;;;2.20;99.90;;;;;;10363782;28;20037;-81
2022/12/08 08:14:15;;;;;;;73.97;30.83;;;2.30;99.90;;;;;;10364143;28;20049;-83
2022/12/08 08:19:16;;;;;;;86.00;41.50;;;2.30;99.90;;;;;;10362055;28;20061;-81
2022/12/08 08:24:16;;;;;;;69.90;31.93;;;2.30;99.90;;;;;;10363799;28;20040;-82
2022/12/08 08:29:17;;;;;;;86.97;36.70;;;2.30;99.90;;;;;;10363164;28;20560;-82
2022/12/08 08:34:17;;;;;;;83.23;38.17;;;2.40;99.90;;;;;;10362442;28;20046;-82
2022/12/08 08:39:18;;;;;;;124.73;67.03;;;2.50;99.90;;;;;;10349950;28;20384;-81
2022/12/08 08:44:18;;;;;;;97.03;57.33;;;2.50;99.90;;;;;;10362583;28;20041;-83
2022/12/08 08:49:19;;;;;;;84.27;40.97;;;2.70;99.90;;;;;;10362688;28;20034;-82
2022/12/08 08:54:19;;;;;;;91.33;43.90;;;2.80;99.90;;;;;;10362781;28;20367;-84
2022/12/08 08:59:20;;;;;;;140.93;57.87;;;2.80;99.90;;;;;;10348688;28;20105;-82
2022/12/08 09:04:21;;;;;;;103.73;44.10;;;2.90;99.90;;;;;;10362393;28;20032;-82
2022/12/08 09:09:22;;;;;;;106.77;44.40;;;3.00;99.90;;;;;;10361728;28;20030;-83
2022/12/08 09:14:22;;;;;;;118.80;52.03;;;3.10;99.90;;;;;;10362218;28;20046;-84
2022/12/08 09:19:23;;;;;;;93.03;43.20;;;3.00;99.90;;;;;;10361363;28;20180;-83
2022/12/08 09:24:23;;;;;;;85.80;39.93;;;3.00;99.90;;;;;;10362759;28;20033;-82
2022/12/08 09:29:24;;;;;;;75.80;37.27;;;3.00;99.90;;;;;;10360022;28;20050;-83
2022/12/08 09:34:25;;;;;;;128.77;52.93;;;3.00;99.90;;;;;;10359545;28;20119;-81
2022/12/08 09:39:25;;;;;;;134.63;54.40;;;3.10;99.90;;;;;;10347932;28;20497;-82
2022/12/08 09:44:41;;;;;;;72.63;35.43;;;3.30;99.90;;;;;;10360239;28;20033;-83
2022/12/08 09:49:48;;;;;;;77.43;31.85;;;3.50;99.90;;;;;;10361263;28;20030;-83
2022/12/08 09:54:48;;;;;;;67.00;29.53;;;3.70;99.90;;;;;;10361205;28;20061;-82
2022/12/08 09:59:58;;;;;;;51.80;23.30;;;4.00;99.90;;;;;;10360524;28;20025;-82
2022/12/08 10:04:59;;;;;;;53.90;25.97;;;4.20;99.90;;;;;;10360832;28;20117;-81
2022/12/08 10:10:18;;;;;;;45.77;22.00;;;4.20;99.90;;;;;;10352864;28;20026;-83
2022/12/08 10:15:48;;;;;;;52.47;24.13;;;4.20;99.90;;;;;;10360026;28;20038;-81
2022/12/08 10:20:50;;;;;;;47.30;24.63;;;4.20;99.90;;;;;;10359957;28;20796;-84
2022/12/08 10:26:02;;;;;;;37.23;18.67;;;4.10;99.90;;;;;;10358912;28;20129;-84
2022/12/08 10:31:03;;;;;;;36.53;18.47;;;4.10;99.90;;;;;;10359572;28;20033;-83
2022/12/08 10:36:03;;;;;;;38.30;17.70;;;4.10;99.90;;;;;;10360553;28;20030;-83
2022/12/08 10:41:11;;;;;;;28.37;14.33;;;4.20;99.90;;;;;;10358868;28;20397;-82
2022/12/08 10:46:27;;;;;;;33.10;16.67;;;4.30;99.90;;;;;;10360981;28;20033;-83
2022/12/08 10:51:40;;;;;;;27.30;14.23;;;4.30;99.90;;;;;;10360822;28;20049;-84
2022/12/08 10:56:53;;;;;;;29.20;13.83;;;4.30;99.90;;;;;;10362731;28;20242;-82
2022/12/08 11:01:55;;;;;;;38.67;23.07;;;4.30;99.90;;;;;;10367559;28;20441;-82
2022/12/08 11:06:56;;;;;;;25.33;13.07;;;4.20;99.90;;;;;;10366004;28;20030;-82
2022/12/08 11:12:26;;;;;;;28.03;14.20;;;4.20;99.90;;;;;;10367282;28;20049;-83
2022/12/08 11:17:34;;;;;;;70.73;30.27;;;4.10;99.90;;;;;;10367425;28;20030;-82
2022/12/08 11:22:38;;;;;;;61.37;25.80;;;4.10;99.90;;;;;;10366937;28;20034;-84
2022/12/08 11:27:43;;;;;;;59.40;25.83;;;4.00;99.90;;;;;;10366899;28;20026;-82
2022/12/08 11:32:46;;;;;;;72.57;30.10;;;4.00;99.90;;;;;;10303050;28;20046;-83
2022/12/08 11:37:47;;;;;;;55.43;24.17;;;4.00;99.90;;;;;;10346205;28;20026;-83
2022/12/08 11:43:20;;;;;;;43.80;21.00;;;4.00;99.90;;;;;;10362526;28;20057;-81
2022/12/08 11:48:26;;;;;;;46.20;21.37;;;3.90;99.90;;;;;;10351201;28;20046;-81
2022/12/08 11:53:51;;;;;;;48.00;19.00;;;4.00;99.90;;;;;;10336793;28;20456;-83
2022/12/08 11:59:14;;;;;;;34.40;14.97;;;4.00;99.90;;;;;;10313283;28;20106;-82
2022/12/08 12:04:18;;;;;;;50.57;21.17;;;4.10;99.90;;;;;;10320486;28;20041;-84
2022/12/08 13:56:04;;;;;;;54.13;22.27;;;3.00;99.90;;;;;;10263970;28;20058;-82
2022/12/08 14:01:14;;;;;;;69.93;28.13;;;2.90;99.90;;;;;;10310283;28;20376;-82
2022/12/08 14:06:24;;;;;;;88.40;37.90;;;2.90;99.90;;;;;;10330489;28;20505;-83
2022/12/08 14:11:33;;;;;;;84.53;33.93;;;2.80;99.90;;;;;;10322583;28;20046;-83
2022/12/08 14:16:41;;;;;;;50.97;22.77;;;2.80;99.90;;;;;;10326639;28;20128;-82
2022/12/08 14:21:46;;;;;;;77.07;30.60;;;2.70;99.90;;;;;;10333193;28;20018;-83
2022/12/08 14:26:50;;;;;;;75.05;31.60;;;2.70;99.90;;;;;;10330584;28;20030;-84
2022/12/08 14:31:52;;;;;;;91.23;37.07;;;2.70;99.90;;;;;;10332230;28;20058;-83
2022/12/08 14:36:53;;;;;;;54.97;25.90;;;2.60;99.90;;;;;;10332974;28;20026;-83
2022/12/08 14:42:00;;;;;;;93.80;43.63;;;2.60;99.90;;;;;;10325101;28;20022;-82
2022/12/08 14:47:09;;;;;;;65.87;30.77;;;2.60;99.90;;;;;;10331161;28;20056;-82
2022/12/08 14:52:11;;;;;;;92.63;43.13;;;2.50;99.90;;;;;;10338909;28;20038;-81
2022/12/08 14:57:13;;;;;;;111.47;50.97;;;2.50;99.90;;;;;;10343104;28;20054;-83
2022/12/08 15:02:18;;;;;;;87.70;38.83;;;2.50;99.90;;;;;;10331154;28;20497;-83
2022/12/08 15:07:23;;;;;;;92.17;40.33;;;2.40;99.90;;;;;;10340823;28;20045;-84
2022/12/08 15:12:30;;;;;;;116.03;51.70;;;2.40;99.90;;;;;;10328122;28;20066;-84
2022/12/08 15:17:44;;;;;;;81.60;37.47;;;2.40;99.90;;;;;;10342860;28;20044;-84
2022/12/08 15:22:44;;;;;;;89.67;40.10;;;2.30;99.90;;;;;;10334197;28;20026;-82
2022/12/08 15:27:45;;;;;;;96.77;42.57;;;2.20;99.90;;;;;;10351398;28;20034;-85
2022/12/08 15:32:46;;;;;;;99.23;46.00;;;2.20;99.90;;;;;;10324366;28;20051;-84
2022/12/08 15:37:47;;;;;;;119.30;53.60;;;2.20;99.90;;;;;;10326324;28;20029;-83
2022/12/08 15:42:48;;;;;;;138.33;64.33;;;2.20;99.90;;;;;;10336415;28;20122;-83
2022/12/08 15:47:48;;;;;;;118.23;56.63;;;2.20;99.90;;;;;;10312736;28;20045;-84
2022/12/08 15:52:49;;;;;;;109.07;59.67;;;2.30;99.90;;;;;;10301386;28;20491;-85
2022/12/08 15:57:52;;;;;;;94.73;49.97;;;2.30;99.90;;;;;;10306645;28;20049;-83
2022/12/08 16:02:54;;;;;;;96.57;50.47;;;2.30;99.90;;;;;;10311422;28;20034;-82
2022/12/08 16:07:55;;;;;;;115.17;62.07;;;2.30;99.90;;;;;;10348875;28;20033;-83
2022/12/08 16:18:22;;;;;;;191.27;96.57;;;2.40;99.90;;;;;;10300869;28;20049;-82
2022/12/08 16:23:22;;;;;;;131.80;68.30;;;2.40;99.90;;;;;;10315422;28;20031;-82
2022/12/08 16:28:23;;;;;;;116.53;58.13;;;2.40;99.90;;;;;;10325846;28;20295;-81
2022/12/08 16:33:23;;;;;;;131.17;66.60;;;2.40;99.90;;;;;;10321395;28;20038;-82
2022/12/08 16:38:24;;;;;;;139.47;69.90;;;2.40;99.90;;;;;;10323273;28;20065;-82
2022/12/08 16:43:24;;;;;;;129.03;68.17;;;2.40;99.90;;;;;;10321765;28;20526;-84
2022/12/08 16:48:25;;;;;;;121.83;62.47;;;2.40;99.90;;;;;;10329529;28;20046;-82
2022/12/08 16:53:25;;;;;;;139.47;75.63;;;2.40;99.90;;;;;;10292168;28;20093;-82
2022/12/08 16:58:26;;;;;;;136.77;71.87;;;2.40;99.90;;;;;;10324529;28;20521;-83
2022/12/08 17:03:29;;;;;;;136.37;71.63;;;2.50;99.90;;;;;;10320878;28;20026;-82
2022/12/08 17:08:29;;;;;;;107.40;55.63;;;2.50;99.90;;;;;;10330379;28;20030;-82
2022/12/08 17:13:30;;;;;;;112.90;60.40;;;2.40;99.90;;;;;;10332105;28;20099;-82
2022/12/08 17:18:30;;;;;;;94.60;49.73;;;2.50;99.90;;;;;;10320585;28;20035;-82
2022/12/08 17:23:31;;;;;;;121.83;60.70;;;2.50;99.90;;;;;;10316740;28;20075;-81
2022/12/08 17:28:31;;;;;;;123.67;64.63;;;2.40;99.90;;;;;;10323766;28;20035;-81
2022/12/08 17:33:32;;;;;;;132.77;66.73;;;2.40;99.90;;;;;;10331338;28;20046;-81
2022/12/08 17:38:32;;;;;;;146.17;68.87;;;2.50;99.90;;;;;;10301259;28;20037;-81
2022/12/08 17:43:33;;;;;;;121.37;61.10;;;2.50;99.90;;;;;;10327002;28;20030;-81
2022/12/08 17:48:34;;;;;;;133.10;66.23;;;2.50;99.90;;;;;;10323366;28;20040;-83
2022/12/08 17:53:35;;;;;;;287.63;135.33;;;2.50;99.90;;;;;;10329406;28;20038;-82
2022/12/08 17:58:35;;;;;;;221.37;110.30;;;2.50;99.90;;;;;;10340216;28;20161;-81
2022/12/08 18:03:37;;;;;;;165.57;82.73;;;2.50;99.90;;;;;;10317596;28;20027;-82
2022/12/08 18:08:38;;;;;;;182.77;92.50;;;2.50;99.90;;;;;;10313286;28;20030;-81
2022/12/08 18:13:39;;;;;;;263.13;110.30;;;2.40;99.90;;;;;;10319248;28;20042;-81
2022/12/08 18:18:39;;;;;;;276.80;130.70;;;2.50;99.90;;;;;;10337080;28;20478;-81
2022/12/08 18:23:41;;;;;;;350.43;179.60;;;2.50;99.90;;;;;;10332282;28;20026;-81
2022/12/08 18:28:42;;;;;;;177.50;88.13;;;2.50;99.90;;;;;;10315463;28;20121;-82
2022/12/08 18:33:44;;;;;;;146.83;79.70;;;2.50;99.90;;;;;;10315580;28;20094;-84
2022/12/08 18:38:45;;;;;;;129.83;74.73;;;2.50;99.90;;;;;;10340134;28;20091;-83
2022/12/08 18:43:46;;;;;;;123.63;62.03;;;2.50;99.90;;;;;;10333595;28;20114;-85
2022/12/08 18:48:48;;;;;;;116.97;60.07;;;2.50;99.90;;;;;;10318027;28;20491;-83
2022/12/08 18:53:50;;;;;;;119.77;60.37;;;2.40;99.90;;;;;;10328184;28;20047;-83
2022/12/08 18:58:51;;;;;;;110.80;57.77;;;2.40;99.90;;;;;;10326009;28;20057;-82
2022/12/08 19:03:52;;;;;;;112.03;58.33;;;2.40;99.90;;;;;;10339646;28;20023;-84
2022/12/08 19:08:52;;;;;;;160.40;76.67;;;2.40;99.90;;;;;;10310360;28;20026;-83
2022/12/08 19:13:53;;;;;;;171.20;83.83;;;2.30;99.90;;;;;;10322191;28;20685;-84
2022/12/08 19:18:54;;;;;;;186.40;90.57;;;2.30;99.90;;;;;;10328001;28;20041;-87
2022/12/08 19:23:57;;;;;;;160.73;75.90;;;2.30;99.90;;;;;;10338413;28;20032;-85
2022/12/08 19:28:57;;;;;;;121.63;59.63;;;2.30;99.90;;;;;;10347455;28;20034;-82
2022/12/08 19:33:58;;;;;;;135.20;60.73;;;2.20;99.90;;;;;;10336411;28;20046;-84
2022/12/08 19:49:45;;;;;;;104.07;51.63;;;2.30;99.90;;;;;;10352261;28;20050;-83
2022/12/08 19:54:46;;;;;;;129.63;59.33;;;2.30;99.90;;;;;;10345976;28;20046;-83
2022/12/08 19:59:46;;;;;;;123.67;59.77;;;2.30;99.90;;;;;;10335343;28;20046;-83
2022/12/08 20:04:47;;;;;;;248.70;108.87;;;2.30;99.90;;;;;;10359704;22;20077;-84
2022/12/08 20:09:47;;;;;;;359.70;155.47;;;2.30;99.90;;;;;;10316155;28;20022;-83
2022/12/08 20:14:48;;;;;;;309.30;138.47;;;2.30;99.90;;;;;;10322022;28;20094;-83
2022/12/08 20:19:49;;;;;;;261.27;122.73;;;2.20;99.90;;;;;;10297299;28;20030;-83
2022/12/08 20:24:50;;;;;;;247.07;118.17;;;2.30;99.90;;;;;;10300844;28;20034;-83
2022/12/08 20:29:51;;;;;;;206.97;104.77;;;2.30;99.90;;;;;;10330427;28;20370;-82
2022/12/08 20:34:51;;;;;;;201.37;100.70;;;2.30;99.90;;;;;;10337247;28;20040;-85
2022/12/08 20:39:52;;;;;;;192.77;90.20;;;2.20;99.90;;;;;;10325466;28;20033;-83
2022/12/08 20:44:53;;;;;;;180.63;89.43;;;2.20;99.90;;;;;;10325413;28;20023;-85
2022/12/08 20:49:53;;;;;;;162.37;84.20;;;2.20;99.90;;;;;;10323755;28;20125;-84
2022/12/08 20:54:54;;;;;;;201.40;92.20;;;2.10;99.90;;;;;;10325186;28;20041;-84
2022/12/08 20:59:56;;;;;;;156.57;77.73;;;2.20;99.90;;;;;;10323762;28;20386;-84
2022/12/08 21:04:56;;;;;;;240.13;106.50;;;2.20;99.90;;;;;;10331471;28;20050;-83
2022/12/08 21:09:57;;;;;;;323.97;141.20;;;2.20;99.90;;;;;;10324459;28;20023;-83
2022/12/08 21:14:58;;;;;;;266.97;130.87;;;2.20;99.90;;;;;;10332917;28;20122;-82
2022/12/08 21:19:59;;;;;;;284.77;134.47;;;2.30;99.90;;;;;;10341087;28;20044;-83
2022/12/08 21:24:59;;;;;;;341.17;152.90;;;2.30;99.90;;;;;;10327751;28;20033;-83
2022/12/08 21:30:00;;;;;;;276.03;131.60;;;2.30;99.90;;;;;;10326119;28;20120;-83
2022/12/08 21:35:00;;;;;;;282.17;139.93;;;2.20;99.90;;;;;;10323717;28;20042;-82
2022/12/08 21:40:01;;;;;;;353.73;162.30;;;2.20;99.90;;;;;;10329821;28;20509;-83
2022/12/08 21:45:01;;;;;;;357.07;161.27;;;2.20;99.90;;;;;;10336761;28;20049;-83
2022/12/08 21:50:03;;;;;;;326.63;147.23;;;2.20;99.90;;;;;;10332750;28;20038;-83
2022/12/08 21:55:04;;;;;;;361.17;170.20;;;2.30;99.90;;;;;;10327037;28;20051;-83
2022/12/08 22:00:07;;;;;;;344.23;161.07;;;2.30;99.90;;;;;;10326114;28;20583;-82
2022/12/08 22:05:08;;;;;;;309.23;142.60;;;2.30;99.90;;;;;;10333098;28;20058;-83
2022/12/08 22:10:09;;;;;;;287.80;133.40;;;2.30;99.90;;;;;;10328388;28;20177;-83
2022/12/08 22:15:10;;;;;;;258.10;129.77;;;2.30;99.90;;;;;;10327296;28;20097;-84
2022/12/08 22:20:13;;;;;;;246.37;124.17;;;2.30;99.90;;;;;;10317213;28;20026;-82
2022/12/08 22:25:13;;;;;;;256.53;118.67;;;2.20;99.90;;;;;;10349524;28;20026;-83
2022/12/08 22:30:14;;;;;;;270.17;122.43;;;2.20;99.90;;;;;;10345239;28;20037;-83
2022/12/08 22:35:15;;;;;;;283.20;124.23;;;2.20;99.90;;;;;;10343334;28;20653;-84
2022/12/08 22:40:15;;;;;;;230.07;112.50;;;2.20;99.90;;;;;;10354033;22;20130;-83
2022/12/08 22:45:16;;;;;;;241.47;110.10;;;2.20;99.90;;;;;;10357362;28;20034;-82
2022/12/08 22:50:16;;;;;;;222.93;109.00;;;2.20;99.90;;;;;;10358618;28;20026;-83
2022/12/08 22:55:17;;;;;;;241.43;112.63;;;2.20;99.90;;;;;;10331462;28;20049;-85
2022/12/08 23:00:18;;;;;;;249.93;119.90;;;2.20;99.90;;;;;;10344686;28;20030;-84
2022/12/08 23:05:18;;;;;;;237.30;119.00;;;2.20;99.90;;;;;;10324412;28;20482;-84
2022/12/08 23:10:19;;;;;;;274.23;126.33;;;2.20;99.90;;;;;;10335907;28;20035;-83
2022/12/08 23:15:20;;;;;;;267.90;127.07;;;2.20;99.90;;;;;;10327987;28;20058;-83
2022/12/08 23:20:20;;;;;;;243.43;118.13;;;2.20;99.90;;;;;;10326845;28;20057;-84
2022/12/08 23:25:21;;;;;;;273.73;130.73;;;2.10;99.90;;;;;;10365511;28;20034;-84
2022/12/08 23:30:23;;;;;;;249.60;123.97;;;2.10;99.90;;;;;;10364608;28;20837;-84
2022/12/08 23:35:24;;;;;;;218.33;109.03;;;2.20;99.90;;;;;;10365013;28;20064;-83
2022/12/08 23:40:24;;;;;;;225.07;107.83;;;2.10;99.90;;;;;;10364489;28;20120;-83
2022/12/08 23:45:25;;;;;;;184.87;93.50;;;2.20;99.90;;;;;;10364830;28;20026;-83
2022/12/08 23:50:25;;;;;;;192.60;94.70;;;2.20;99.90;;;;;;10364765;28;20727;-83
2022/12/08 23:55:26;;;;;;;172.93;86.87;;;2.20;99.90;;;;;;10365183;28;20446;-83
